Time;durP1;ratioP1;P1;durP2;ratioP2;P2;SDS_P1;SDS_P2;PMS_P1;PMS_P2;Temp;Humidity;BMP_temperature;BMP_pressure;BME280_temperature;BME280_humidity;BME280_pressure;Samples;Min_cycle;Max_cycle;Signal;HPM_P1;HPM_P2
2021/10/25 00:00:45;;;;;;;16.23;11.53;;;5.50;99.90;;;;;;5092754;28;20452;-59
2021/10/25 00:03:12;;;;;;;14.70;10.73;;;5.50;99.90;;;;;;5092746;28;20450;-58
2021/10/25 00:05:43;;;;;;;17.90;11.87;;;5.50;99.90;;;;;;5092810;28;20512;-58
2021/10/25 00:08:13;;;;;;;17.73;11.87;;;5.50;99.90;;;;;;5092976;28;20450;-58
2021/10/25 00:10:40;;;;;;;14.97;10.50;;;5.40;99.90;;;;;;5092092;28;20970;-58
2021/10/25 00:13:07;;;;;;;15.33;11.10;;;5.40;99.90;;;;;;5092671;28;20454;-58
2021/10/25 00:15:34;;;;;;;15.70;11.27;;;5.30;99.90;;;;;;5092430;28;20887;-58
2021/10/25 00:18:01;;;;;;;15.87;11.07;;;5.30;99.90;;;;;;5093054;28;20861;-58
2021/10/25 00:20:28;;;;;;;16.10;10.90;;;5.20;99.90;;;;;;5092727;28;20507;-58
2021/10/25 00:22:56;;;;;;;16.73;10.77;;;5.30;99.90;;;;;;5093138;28;20446;-58
2021/10/25 00:25:23;;;;;;;16.60;10.93;;;5.30;99.90;;;;;;5093092;28;20466;-58
2021/10/25 00:27:50;;;;;;;16.40;11.03;;;5.20;99.90;;;;;;5092302;28;20481;-58
2021/10/25 00:30:17;;;;;;;16.07;10.90;;;5.10;99.90;;;;;;5091697;28;20458;-58
2021/10/25 00:32:44;;;;;;;14.93;10.90;;;5.00;99.90;;;;;;5092618;28;20495;-58
2021/10/25 00:35:11;;;;;;;15.97;10.70;;;5.00;99.90;;;;;;5092636;28;20485;-58
2021/10/25 00:37:38;;;;;;;15.93;11.63;;;5.00;99.90;;;;;;5092641;28;20936;-58
2021/10/25 00:40:09;;;;;;;13.90;10.07;;;5.00;99.90;;;;;;5092585;28;20494;-58
2021/10/25 00:42:36;;;;;;;17.80;11.07;;;5.10;99.90;;;;;;5092465;28;20807;-58
2021/10/25 00:45:04;;;;;;;15.53;10.37;;;5.10;99.90;;;;;;5091884;28;21063;-58
2021/10/25 00:47:31;;;;;;;14.23;10.07;;;5.10;99.90;;;;;;5091850;28;20483;-57
2021/10/25 00:49:58;;;;;;;16.20;10.87;;;5.10;99.90;;;;;;5092065;28;21017;-58
2021/10/25 00:52:25;;;;;;;15.20;10.27;;;5.10;99.90;;;;;;5092298;28;20478;-58
2021/10/25 00:54:52;;;;;;;14.33;10.23;;;5.10;99.90;;;;;;5092302;28;20991;-58
2021/10/25 00:57:21;;;;;;;15.97;11.40;;;5.10;99.90;;;;;;5092315;28;20446;-58
2021/10/25 00:59:48;;;;;;;17.10;11.07;;;5.10;99.90;;;;;;5091547;28;20503;-58
2021/10/25 01:02:15;;;;;;;15.17;10.50;;;5.00;99.90;;;;;;5091772;28;20457;-58
2021/10/25 01:04:42;;;;;;;13.30;10.80;;;5.00;99.90;;;;;;5091102;28;20473;-58
2021/10/25 01:07:09;;;;;;;14.10;10.17;;;5.00;99.90;;;;;;5091835;28;20485;-58
2021/10/25 01:09:36;;;;;;;14.90;9.73;;;4.70;99.90;;;;;;5091779;28;20837;-58
2021/10/25 01:12:04;;;;;;;17.00;11.30;;;4.70;99.90;;;;;;5091712;28;20446;-58
2021/10/25 01:14:33;;;;;;;14.90;10.47;;;4.80;99.90;;;;;;5091091;28;21124;-58
2021/10/25 01:17:00;;;;;;;17.33;11.73;;;4.90;99.90;;;;;;5091425;28;20449;-57
2021/10/25 01:19:27;;;;;;;15.10;11.23;;;4.80;99.90;;;;;;5091650;28;20511;-58
2021/10/25 01:21:56;;;;;;;16.80;12.30;;;4.70;99.90;;;;;;5091396;28;20450;-58
2021/10/25 01:24:23;;;;;;;20.23;12.83;;;4.80;99.90;;;;;;5091658;28;20582;-58
2021/10/25 01:26:50;;;;;;;19.30;12.33;;;4.80;99.90;;;;;;5090808;28;20478;-58
2021/10/25 01:29:18;;;;;;;18.20;12.40;;;4.70;99.90;;;;;;5091583;28;21001;-58
2021/10/25 01:31:46;;;;;;;18.03;12.67;;;4.80;99.90;;;;;;5091625;28;20503;-58
2021/10/25 01:34:13;;;;;;;21.93;13.73;;;4.80;99.90;;;;;;5086101;28;20494;-58
2021/10/25 01:36:40;;;;;;;21.03;12.30;;;4.80;99.90;;;;;;5091654;28;20807;-58
2021/10/25 01:39:09;;;;;;;17.33;11.27;;;4.80;99.90;;;;;;5091437;28;20540;-58
2021/10/25 01:41:36;;;;;;;24.20;13.80;;;4.90;99.90;;;;;;5090753;28;20841;-58
2021/10/25 01:44:09;;;;;;;16.30;12.30;;;4.90;99.90;;;;;;5091385;28;20503;-58
2021/10/25 01:46:36;;;;;;;16.57;12.37;;;4.80;99.90;;;;;;5091469;28;20483;-58
2021/10/25 01:49:05;;;;;;;17.83;12.10;;;4.90;99.90;;;;;;5091700;28;20454;-58
2021/10/25 01:51:33;;;;;;;18.13;12.23;;;4.90;99.90;;;;;;5090967;28;20546;-58
2021/10/25 01:54:00;;;;;;;16.97;11.70;;;4.90;99.90;;;;;;5091358;28;20454;-58
2021/10/25 01:56:29;;;;;;;17.47;11.30;;;4.90;99.90;;;;;;5091059;28;20496;-58
2021/10/25 01:58:56;;;;;;;16.37;11.30;;;4.90;99.90;;;;;;5091316;28;20984;-58
2021/10/25 02:01:24;;;;;;;18.40;11.70;;;4.90;99.90;;;;;;5091020;28;20931;-58
2021/10/25 02:03:51;;;;;;;17.60;11.50;;;4.90;99.90;;;;;;5091047;28;20491;-58
2021/10/25 02:06:19;;;;;;;17.43;11.30;;;4.90;99.90;;;;;;5091224;28;20889;-58
2021/10/25 02:08:47;;;;;;;18.03;12.00;;;4.90;99.90;;;;;;5091117;28;20461;-58
2021/10/25 02:11:14;;;;;;;14.53;11.13;;;4.80;99.90;;;;;;5090467;28;20656;-58
2021/10/25 02:13:43;;;;;;;23.13;11.87;;;4.90;99.90;;;;;;5091283;28;20519;-58
2021/10/25 02:16:11;;;;;;;19.80;12.43;;;4.90;99.90;;;;;;5092133;28;20465;-58
2021/10/25 02:18:38;;;;;;;16.57;12.13;;;4.80;99.90;;;;;;5094902;28;20790;-58
2021/10/25 02:21:05;;;;;;;17.00;11.73;;;4.90;99.90;;;;;;5094454;28;20442;-58
2021/10/25 02:23:32;;;;;;;17.90;12.63;;;4.90;99.90;;;;;;5094561;28;20519;-58
2021/10/25 02:26:00;;;;;;;18.40;13.07;;;5.00;99.90;;;;;;5094539;28;20497;-58
2021/10/25 02:28:28;;;;;;;18.03;12.63;;;4.90;99.90;;;;;;5094194;28;20907;-58
2021/10/25 02:30:56;;;;;;;19.33;12.73;;;4.90;99.90;;;;;;5094468;28;20441;-58
2021/10/25 02:33:23;;;;;;;19.30;12.90;;;4.90;99.90;;;;;;5094463;28;20518;-58
2021/10/25 02:35:51;;;;;;;19.63;12.30;;;5.00;99.90;;;;;;5093869;28;20534;-58
2021/10/25 02:38:18;;;;;;;20.60;12.93;;;5.00;99.90;;;;;;5094572;28;20899;-58
2021/10/25 02:40:47;;;;;;;23.33;12.90;;;5.00;99.90;;;;;;5093913;28;20515;-58
2021/10/25 02:43:14;;;;;;;21.90;13.27;;;5.00;99.90;;;;;;5094017;28;20967;-58
2021/10/25 02:45:41;;;;;;;19.83;13.00;;;5.00;99.90;;;;;;5094286;28;20470;-58
2021/10/25 02:48:10;;;;;;;22.80;12.37;;;4.90;99.90;;;;;;5094098;28;20492;-58
2021/10/25 02:50:37;;;;;;;22.17;13.97;;;5.00;99.90;;;;;;5094269;28;20472;-58
2021/10/25 02:53:05;;;;;;;18.20;12.37;;;4.90;99.90;;;;;;5094000;28;20499;-58
2021/10/25 02:55:32;;;;;;;17.77;11.83;;;4.90;99.90;;;;;;5078056;28;20485;-58
2021/10/25 02:58:00;;;;;;;19.17;12.27;;;5.00;99.90;;;;;;5090969;28;20962;-58
2021/10/25 03:00:27;;;;;;;16.87;11.70;;;5.00;99.90;;;;;;5091986;28;20446;-58
2021/10/25 03:02:55;;;;;;;19.50;11.93;;;5.00;99.90;;;;;;5073958;28;20451;-58
2021/10/25 03:05:24;;;;;;;18.80;12.27;;;5.10;99.90;;;;;;5073752;28;20471;-57
2021/10/25 03:07:51;;;;;;;17.57;11.63;;;4.90;99.90;;;;;;5085765;28;21101;-58
2021/10/25 03:10:18;;;;;;;19.13;12.13;;;4.80;99.90;;;;;;5093559;28;20864;-58
2021/10/25 03:12:47;;;;;;;17.60;11.97;;;4.90;99.90;;;;;;5093780;28;20499;-58
2021/10/25 03:15:15;;;;;;;16.53;11.57;;;4.90;99.90;;;;;;5093159;28;20901;-58
2021/10/25 03:17:43;;;;;;;19.47;12.77;;;5.00;99.90;;;;;;5093611;28;21009;-57
2021/10/25 03:20:12;;;;;;;16.13;11.57;;;5.00;99.90;;;;;;5093654;28;20483;-58
2021/10/25 03:22:41;;;;;;;18.23;11.50;;;5.10;99.90;;;;;;5093238;28;20449;-58
2021/10/25 03:25:10;;;;;;;17.10;11.63;;;5.00;99.90;;;;;;5093445;28;20897;-58
2021/10/25 03:27:38;;;;;;;18.97;11.67;;;5.10;99.90;;;;;;5092444;28;20478;-58
2021/10/25 03:30:07;;;;;;;14.93;11.00;;;5.10;99.90;;;;;;5093161;28;20821;-58
2021/10/25 03:32:34;;;;;;;18.10;10.70;;;5.10;99.90;;;;;;5093142;28;20460;-58
2021/10/25 03:35:01;;;;;;;14.50;10.20;;;5.10;99.90;;;;;;5093120;28;20481;-58
2021/10/25 03:37:28;;;;;;;17.23;11.73;;;5.10;99.90;;;;;;5073078;28;20496;-58
2021/10/25 03:39:57;;;;;;;16.40;10.70;;;5.10;99.90;;;;;;5073160;28;20457;-58
2021/10/25 03:42:27;;;;;;;18.93;11.50;;;5.00;99.90;;;;;;5072800;28;21001;-58
2021/10/25 03:45:01;;;;;;;16.77;11.80;;;5.00;99.90;;;;;;5074108;28;20474;-58
2021/10/25 03:47:31;;;;;;;18.27;11.77;;;5.10;99.90;;;;;;5091022;28;20887;-58
2021/10/25 03:50:06;;;;;;;19.97;11.77;;;5.10;99.90;;;;;;5092633;28;20962;-58
2021/10/25 03:52:38;;;;;;;16.37;11.03;;;5.10;99.90;;;;;;5093052;28;20446;-58
2021/10/25 03:55:11;;;;;;;17.00;11.67;;;5.10;99.90;;;;;;5093067;28;20489;-58
2021/10/25 03:58:02;;;;;;;14.97;10.90;;;5.20;99.90;;;;;;5092635;28;20448;-58
2021/10/25 04:00:43;;;;;;;16.20;10.10;;;5.20;99.90;;;;;;5092277;28;20917;-58
2021/10/25 04:26:07;;;;;;;17.87;11.67;;;5.10;99.90;;;;;;5092423;28;20456;-58
2021/10/25 04:28:38;;;;;;;14.83;11.13;;;5.10;99.90;;;;;;5092444;28;20488;-58
2021/10/25 04:31:05;;;;;;;18.90;11.27;;;5.10;99.90;;;;;;5092226;28;20450;-58
2021/10/25 04:33:32;;;;;;;17.10;11.70;;;5.10;99.90;;;;;;5082458;28;20489;-58
2021/10/25 04:35:59;;;;;;;16.97;11.07;;;5.10;99.90;;;;;;5071976;28;20478;-58
2021/10/25 04:38:26;;;;;;;17.13;11.10;;;5.10;99.90;;;;;;5089434;28;20533;-58
2021/10/25 04:40:53;;;;;;;17.03;11.00;;;5.00;99.90;;;;;;5091939;28;20943;-58
2021/10/25 04:43:20;;;;;;;16.27;11.97;;;5.00;99.90;;;;;;5092198;28;20448;-57
2021/10/25 04:45:51;;;;;;;16.17;11.63;;;4.80;99.90;;;;;;5091963;28;20469;-58
2021/10/25 04:48:19;;;;;;;15.77;10.87;;;4.70;99.90;;;;;;5091879;28;21171;-58
2021/10/25 04:50:47;;;;;;;19.13;11.70;;;4.90;99.90;;;;;;5091950;28;20476;-58
2021/10/25 04:53:14;;;;;;;17.20;11.67;;;5.00;99.90;;;;;;5092039;28;20503;-58
2021/10/25 04:55:45;;;;;;;17.13;11.33;;;5.00;99.90;;;;;;5091499;28;20466;-58
2021/10/25 04:58:12;;;;;;;18.20;12.03;;;4.90;99.90;;;;;;5091864;28;20541;-58
2021/10/25 05:00:39;;;;;;;20.57;12.43;;;4.90;99.90;;;;;;5091780;28;20854;-58
2021/10/25 05:03:07;;;;;;;17.80;12.23;;;5.00;99.90;;;;;;5088326;28;20507;-58
2021/10/25 05:05:35;;;;;;;18.43;12.13;;;5.00;99.90;;;;;;5091795;28;20466;-59
2021/10/25 05:08:02;;;;;;;20.20;11.60;;;5.00;99.90;;;;;;5091659;28;20497;-58
2021/10/25 05:10:29;;;;;;;20.63;11.50;;;5.10;99.90;;;;;;5091756;28;20459;-58
2021/10/25 05:12:56;;;;;;;17.27;11.60;;;5.10;99.90;;;;;;5091441;28;20450;-58
2021/10/25 05:15:23;;;;;;;14.80;10.70;;;5.10;99.90;;;;;;5091485;28;20557;-58
2021/10/25 05:17:50;;;;;;;15.80;11.50;;;5.10;99.90;;;;;;5091552;28;20499;-58
2021/10/25 05:20:18;;;;;;;16.63;11.63;;;5.10;99.90;;;;;;5091415;28;20502;-58
2021/10/25 05:22:45;;;;;;;16.87;11.37;;;5.10;99.90;;;;;;5091144;28;20447;-58
2021/10/25 05:25:12;;;;;;;17.67;12.37;;;5.10;99.90;;;;;;5091423;28;20544;-58
2021/10/25 05:27:39;;;;;;;18.70;12.00;;;5.10;99.90;;;;;;5090880;28;20543;-58
2021/10/25 05:30:07;;;;;;;18.23;12.80;;;5.20;99.90;;;;;;5091298;28;20461;-58
2021/10/25 05:32:35;;;;;;;20.37;14.00;;;5.10;99.90;;;;;;5083038;28;20452;-58
2021/10/25 05:35:02;;;;;;;19.00;12.40;;;5.10;99.90;;;;;;5071313;28;20502;-60
2021/10/25 05:37:32;;;;;;;17.90;12.83;;;5.10;99.90;;;;;;5082859;28;20536;-60
2021/10/25 05:39:59;;;;;;;20.27;13.00;;;5.10;99.90;;;;;;5091381;28;20453;-60
2021/10/25 05:42:26;;;;;;;20.53;13.60;;;5.10;99.90;;;;;;5091312;28;20438;-60
2021/10/25 05:44:53;;;;;;;22.03;13.33;;;5.10;99.90;;;;;;5085077;28;20481;-60
2021/10/25 05:47:20;;;;;;;17.77;12.67;;;5.10;99.90;;;;;;5085845;28;20450;-60
2021/10/25 05:49:47;;;;;;;19.37;12.77;;;5.00;99.90;;;;;;5090039;28;20450;-59
2021/10/25 05:52:14;;;;;;;24.23;13.60;;;5.00;99.90;;;;;;5093572;28;20453;-59
2021/10/25 05:54:43;;;;;;;21.90;14.23;;;5.00;99.90;;;;;;5093491;28;20457;-60
2021/10/25 05:57:12;;;;;;;25.10;14.07;;;5.00;99.90;;;;;;5094775;28;20499;-60
2021/10/25 05:59:39;;;;;;;20.00;13.43;;;5.10;99.90;;;;;;5091636;28;20442;-60
2021/10/25 06:02:16;;;;;;;24.93;14.67;;;5.10;99.90;;;;;;5084068;28;20512;-60
2021/10/25 06:04:44;;;;;;;23.60;14.40;;;5.00;99.90;;;;;;5075164;28;20469;-59
2021/10/25 06:07:11;;;;;;;24.07;14.50;;;5.00;99.90;;;;;;5092990;28;20449;-59
2021/10/25 06:09:38;;;;;;;21.67;12.70;;;5.00;99.90;;;;;;5095022;28;20485;-60
2021/10/25 06:12:11;;;;;;;18.90;12.20;;;5.00;99.90;;;;;;5094616;28;20503;-60
2021/10/25 06:14:40;;;;;;;20.60;12.87;;;5.00;99.90;;;;;;5094491;28;20997;-59
2021/10/25 06:17:20;;;;;;;23.67;13.77;;;5.00;99.90;;;;;;5094733;28;20663;-59
2021/10/25 06:19:47;;;;;;;21.57;13.20;;;5.00;99.90;;;;;;5094572;28;21194;-59
2021/10/25 06:22:15;;;;;;;21.60;12.03;;;5.00;99.90;;;;;;5094052;28;20450;-60
2021/10/25 06:24:42;;;;;;;20.67;12.30;;;5.00;99.90;;;;;;5094799;28;20501;-60
2021/10/25 06:27:11;;;;;;;21.73;12.63;;;5.10;99.90;;;;;;5094802;28;20499;-60
2021/10/25 06:29:38;;;;;;;20.47;13.23;;;5.10;99.90;;;;;;5088632;28;20478;-59
2021/10/25 06:32:06;;;;;;;23.50;12.50;;;5.10;99.90;;;;;;5089489;28;20453;-60
2021/10/25 06:34:37;;;;;;;20.77;11.90;;;5.10;99.90;;;;;;5093437;28;20899;-59
2021/10/25 06:37:05;;;;;;;25.43;12.40;;;5.10;99.90;;;;;;5093261;28;20442;-60
2021/10/25 06:39:37;;;;;;;18.93;12.70;;;5.10;99.90;;;;;;5090460;28;20492;-60
2021/10/25 06:42:04;;;;;;;21.73;13.60;;;5.20;99.90;;;;;;5093949;28;20446;-60
2021/10/25 06:44:35;;;;;;;26.50;13.57;;;5.20;99.90;;;;;;5092388;28;20519;-60
2021/10/25 06:47:02;;;;;;;22.23;12.90;;;5.30;99.90;;;;;;5094173;28;20450;-60
2021/10/25 06:49:29;;;;;;;27.03;13.70;;;5.30;99.90;;;;;;5093852;28;21072;-60
2021/10/25 06:51:57;;;;;;;20.43;12.20;;;5.30;99.90;;;;;;5093465;28;20523;-60
2021/10/25 06:54:24;;;;;;;18.87;12.87;;;5.40;99.90;;;;;;5094066;28;20871;-60
2021/10/25 06:56:51;;;;;;;22.63;14.00;;;5.50;99.90;;;;;;5094146;28;20451;-60
2021/10/25 06:59:18;;;;;;;28.23;19.60;;;5.50;99.90;;;;;;5092906;28;20447;-60
2021/10/25 07:01:46;;;;;;;37.13;19.17;;;5.50;99.90;;;;;;5093223;28;20446;-60
2021/10/25 07:04:14;;;;;;;33.30;20.17;;;5.50;99.90;;;;;;5092695;28;20446;-60
2021/10/25 07:06:41;;;;;;;41.30;21.50;;;5.50;99.90;;;;;;5093495;28;20441;-60
2021/10/25 07:09:09;;;;;;;38.77;24.07;;;5.60;99.90;;;;;;5085676;28;20506;-60
2021/10/25 07:11:41;;;;;;;35.97;19.33;;;5.70;99.90;;;;;;5086731;28;20455;-60
2021/10/25 07:14:08;;;;;;;34.90;19.10;;;5.60;99.90;;;;;;5088931;28;21040;-60
2021/10/25 07:16:40;;;;;;;30.30;17.23;;;5.70;99.90;;;;;;5087881;28;20548;-60
2021/10/25 07:19:25;;;;;;;30.37;17.37;;;5.70;99.90;;;;;;5093148;28;20458;-60
2021/10/25 08:03:43;;;;;;;21.93;12.60;;;6.60;99.90;;;;;;5077530;28;20495;-60
2021/10/25 08:06:16;;;;;;;19.20;11.90;;;6.60;99.90;;;;;;5089587;28;20831;-60
2021/10/25 08:08:51;;;;;;;19.00;12.13;;;6.70;99.90;;;;;;5090106;28;20890;-60
2021/10/25 08:11:20;;;;;;;17.87;12.10;;;6.80;99.90;;;;;;5087401;28;20470;-60
2021/10/25 08:13:48;;;;;;;19.50;12.80;;;6.90;99.90;;;;;;5087873;28;20462;-59
2021/10/25 08:16:23;;;;;;;19.30;12.00;;;6.80;99.90;;;;;;5091734;28;20466;-60
2021/10/25 08:21:38;;;;;;;20.73;13.83;;;6.90;99.90;;;;;;5082081;28;20438;-60
2021/10/25 08:24:07;;;;;;;26.10;16.23;;;7.00;99.90;;;;;;5091389;28;20446;-60
2021/10/25 08:26:34;;;;;;;27.43;17.40;;;7.00;99.90;;;;;;5091397;28;20541;-60
2021/10/25 08:29:03;;;;;;;32.13;18.53;;;6.90;99.90;;;;;;5090461;28;20482;-60
2021/10/25 08:31:33;;;;;;;29.70;19.20;;;6.90;99.90;;;;;;5088987;28;20485;-60
2021/10/25 08:42:24;;;;;;;23.07;15.80;;;7.10;99.90;;;;;;5039385;28;20444;-61
2021/10/25 08:44:56;;;;;;;31.90;17.60;;;7.20;99.90;;;;;;5090210;28;20461;-60
2021/10/25 08:47:26;;;;;;;29.90;18.13;;;7.30;99.90;;;;;;5089984;28;20446;-61
2021/10/25 08:49:54;;;;;;;29.20;18.43;;;7.60;99.90;;;;;;5084629;28;20482;-61
2021/10/25 08:52:24;;;;;;;27.10;17.50;;;7.60;99.90;;;;;;5091221;28;20450;-61
2021/10/25 08:54:54;;;;;;;28.40;16.17;;;7.50;99.90;;;;;;5078582;28;21025;-60
2021/10/25 08:57:21;;;;;;;27.30;17.17;;;7.50;99.90;;;;;;5081235;28;20476;-60
2021/10/25 08:59:58;;;;;;;26.57;17.47;;;7.60;99.90;;;;;;5086885;28;20446;-60
2021/10/25 09:02:26;;;;;;;26.87;17.30;;;7.80;99.90;;;;;;5091354;28;20846;-60
2021/10/25 09:05:01;;;;;;;30.70;17.00;;;8.00;99.90;;;;;;5089610;28;20473;-60
2021/10/25 09:07:29;;;;;;;28.57;17.90;;;8.10;99.90;;;;;;5071571;28;20454;-59
2021/10/25 09:09:58;;;;;;;28.57;18.27;;;8.10;99.90;;;;;;5084497;28;20602;-60
2021/10/25 09:12:35;;;;;;;24.77;16.80;;;8.10;99.90;;;;;;5086752;28;20969;-61
2021/10/25 09:15:02;;;;;;;24.93;16.63;;;8.00;99.90;;;;;;5091539;28;20587;-60
2021/10/25 09:17:38;;;;;;;28.70;17.80;;;8.30;99.90;;;;;;5082392;28;20485;-60
2021/10/25 09:20:07;;;;;;;25.23;15.67;;;8.40;99.90;;;;;;5088708;28;20464;-60
2021/10/25 09:22:35;;;;;;;31.97;16.90;;;8.50;99.90;;;;;;5086614;28;20459;-60
2021/10/25 09:25:04;;;;;;;23.10;15.60;;;8.70;99.90;;;;;;5091406;28;20821;-60
2021/10/25 09:27:33;;;;;;;19.93;14.27;;;8.90;99.90;;;;;;5094872;28;20445;-60
2021/10/25 09:30:12;;;;;;;21.70;13.70;;;9.00;99.90;;;;;;5074896;28;20481;-59
2021/10/25 09:32:41;;;;;;;22.83;13.90;;;9.30;99.90;;;;;;5075479;28;20458;-61
2021/10/25 09:35:16;;;;;;;18.70;12.70;;;9.70;99.90;;;;;;5086446;28;20477;-61
2021/10/25 09:37:48;;;;;;;21.57;14.23;;;9.90;99.90;;;;;;5095500;28;20450;-61
2021/10/25 09:40:30;;;;;;;20.07;12.30;;;10.40;99.90;;;;;;5094594;28;20450;-60
2021/10/25 09:45:51;;;;;;;18.27;11.67;;;10.90;99.90;;;;;;5093335;28;20470;-61
2021/10/25 09:51:03;;;;;;;18.10;12.30;;;11.20;99.90;;;;;;5095060;28;20537;-61
2021/10/25 09:53:39;;;;;;;16.90;12.07;;;11.30;99.90;;;;;;5095034;28;20441;-61
2021/10/25 09:56:10;;;;;;;17.83;11.83;;;11.30;99.90;;;;;;5095258;28;20476;-61
2021/10/25 09:58:55;;;;;;;17.90;12.57;;;11.40;99.90;;;;;;5095240;28;20461;-61
2021/10/25 10:01:27;;;;;;;19.73;12.93;;;11.20;99.90;;;;;;5094696;28;20458;-60
2021/10/25 10:03:54;;;;;;;22.73;13.47;;;11.40;99.90;;;;;;5094705;28;20450;-61
2021/10/25 10:06:21;;;;;;;19.50;13.43;;;11.50;99.90;;;;;;5094600;28;20465;-60
2021/10/25 10:08:49;;;;;;;18.67;12.60;;;11.50;99.90;;;;;;5094462;28;20474;-60
2021/10/25 10:11:20;;;;;;;20.83;13.57;;;11.50;99.90;;;;;;5094527;28;20559;-60
2021/10/25 10:13:48;;;;;;;20.37;13.77;;;11.40;99.90;;;;;;5094447;28;20449;-60
2021/10/25 10:16:15;;;;;;;17.13;11.90;;;11.30;99.90;;;;;;5094508;28;20983;-60
2021/10/25 10:18:46;;;;;;;17.53;12.50;;;11.50;99.90;;;;;;5094907;28;20450;-60
2021/10/25 10:21:14;;;;;;;15.80;12.20;;;11.70;99.90;;;;;;5094428;28;20503;-60
2021/10/25 10:23:45;;;;;;;21.63;12.37;;;11.80;99.90;;;;;;5093482;28;20442;-60
2021/10/25 10:26:16;;;;;;;15.50;11.80;;;11.70;99.90;;;;;;5094178;28;20481;-60
2021/10/25 10:28:47;;;;;;;15.30;11.70;;;11.80;99.90;;;;;;5089645;28;21006;-61
2021/10/25 10:31:17;;;;;;;12.23;10.03;;;11.80;99.90;;;;;;5093879;28;20446;-61
2021/10/25 10:33:49;;;;;;;17.93;10.20;;;11.80;99.90;;;;;;5092189;28;20446;-61
2021/10/25 10:36:21;;;;;;;15.97;8.17;;;11.80;99.90;;;;;;5094122;28;20477;-60
2021/10/25 10:38:50;;;;;;;11.27;8.10;;;11.80;99.90;;;;;;5093230;28;20450;-60
2021/10/25 10:41:20;;;;;;;11.07;7.80;;;11.70;99.90;;;;;;5090407;28;20457;-60
2021/10/25 10:44:06;;;;;;;14.20;8.60;;;11.90;99.90;;;;;;5094021;28;20450;-61
2021/10/25 10:46:44;;;;;;;12.30;8.73;;;12.10;99.90;;;;;;5094286;28;20522;-60
2021/10/25 10:49:27;;;;;;;9.30;7.23;;;12.40;99.90;;;;;;5094031;28;20481;-61
2021/10/25 10:52:22;;;;;;;10.40;7.07;;;12.50;99.90;;;;;;5093829;28;20454;-61
2021/10/25 10:54:59;;;;;;;9.93;6.93;;;12.30;99.90;;;;;;5093486;28;20480;-61
2021/10/25 10:57:47;;;;;;;8.50;6.20;;;12.20;99.90;;;;;;5094213;28;20450;-60
2021/10/25 11:00:21;;;;;;;8.07;5.73;;;12.30;99.90;;;;;;5094096;28;20465;-61
2021/10/25 11:02:53;;;;;;;10.43;7.53;;;12.50;99.90;;;;;;5094017;28;20485;-60
2021/10/25 11:05:30;;;;;;;11.60;7.77;;;12.40;99.90;;;;;;5093025;28;20465;-61
2021/10/25 11:08:07;;;;;;;12.87;8.50;;;12.50;99.90;;;;;;5093668;28;21140;-60
2021/10/25 11:10:35;;;;;;;13.67;9.50;;;12.50;99.90;;;;;;5092930;28;20485;-60
2021/10/25 11:13:05;;;;;;;10.73;6.90;;;12.50;99.90;;;;;;5093853;28;20448;-61
2021/10/25 11:15:41;;;;;;;8.53;6.33;;;12.60;99.90;;;;;;5093465;28;20523;-60
2021/10/25 11:18:08;;;;;;;12.30;6.80;;;12.40;99.90;;;;;;5093282;28;20853;-58
2021/10/25 11:20:36;;;;;;;9.10;6.30;;;12.40;99.90;;;;;;5093481;28;20463;-58
2021/10/25 11:23:05;;;;;;;10.70;6.97;;;12.60;99.90;;;;;;5091705;28;21027;-60
2021/10/25 11:25:46;;;;;;;7.60;6.10;;;12.50;99.90;;;;;;5092638;28;20477;-59
2021/10/25 11:28:17;;;;;;;7.97;6.33;;;12.30;99.90;;;;;;5093037;28;20540;-60
2021/10/25 11:30:47;;;;;;;7.27;5.60;;;12.00;99.90;;;;;;5092731;28;20474;-60
2021/10/25 11:33:19;;;;;;;7.60;5.87;;;12.30;99.90;;;;;;5093449;28;20452;-61
2021/10/25 11:35:51;;;;;;;7.10;5.57;;;12.50;99.90;;;;;;5092738;28;20588;-60
2021/10/25 11:38:19;;;;;;;7.17;5.00;;;12.80;99.90;;;;;;5093659;28;20482;-61
2021/10/25 11:40:48;;;;;;;6.33;4.30;;;13.30;99.90;;;;;;5102204;28;20442;-61
2021/10/25 11:43:15;;;;;;;8.23;5.60;;;13.20;99.90;;;;;;5106225;28;20454;-61
2021/10/25 11:45:44;;;;;;;9.50;5.90;;;13.40;99.90;;;;;;5107398;28;20458;-60
2021/10/25 11:48:12;;;;;;;9.23;5.57;;;13.50;99.90;;;;;;5106790;28;20503;-61
2021/10/25 11:50:40;;;;;;;9.90;5.90;;;13.30;99.90;;;;;;5092591;28;20493;-60
2021/10/25 11:53:09;;;;;;;11.13;6.70;;;13.10;99.90;;;;;;5093153;28;20507;-60
2021/10/25 11:55:38;;;;;;;10.43;5.43;;;13.10;99.90;;;;;;5092736;28;20972;-59
2021/10/25 11:58:07;;;;;;;9.17;5.40;;;13.00;99.90;;;;;;5092719;28;20450;-60
2021/10/25 12:00:39;;;;;;;9.60;6.60;;;13.00;99.90;;;;;;5092004;28;20525;-60
2021/10/25 12:03:12;;;;;;;9.70;6.37;;;12.90;99.90;;;;;;5092464;28;20481;-60
2021/10/25 12:05:40;;;;;;;8.93;6.50;;;13.00;99.90;;;;;;5092635;28;20473;-60
2021/10/25 12:08:09;;;;;;;7.70;6.10;;;13.00;99.90;;;;;;5092663;28;20450;-60
2021/10/25 12:10:38;;;;;;;15.70;6.30;;;13.00;99.90;;;;;;5092353;28;20527;-59
2021/10/25 12:13:07;;;;;;;8.17;5.97;;;13.00;99.90;;;;;;5092335;28;20454;-59
2021/10/25 12:15:37;;;;;;;9.33;6.47;;;13.00;99.90;;;;;;5092582;28;20469;-59
2021/10/25 12:18:06;;;;;;;10.70;6.60;;;13.00;99.90;;;;;;5092273;28;20459;-58
2021/10/25 12:20:37;;;;;;;11.20;7.03;;;13.00;99.90;;;;;;5071860;28;20928;-58
2021/10/25 12:23:05;;;;;;;9.87;6.33;;;13.10;99.90;;;;;;5072154;28;20587;-58
2021/10/25 12:25:35;;;;;;;8.80;6.03;;;12.90;99.90;;;;;;5071943;28;20526;-58
2021/10/25 12:28:09;;;;;;;9.93;6.97;;;13.00;99.90;;;;;;5072168;28;20453;-58
2021/10/25 12:30:36;;;;;;;9.90;6.90;;;13.00;99.90;;;;;;5072525;28;20991;-58
2021/10/25 12:33:04;;;;;;;9.27;5.90;;;13.00;99.90;;;;;;5092307;28;20479;-58
2021/10/25 12:35:44;;;;;;;8.90;6.50;;;13.20;99.90;;;;;;5091504;28;20474;-58
2021/10/25 12:38:14;;;;;;;10.37;7.30;;;13.20;99.90;;;;;;5092051;28;20445;-58
2021/10/25 12:40:43;;;;;;;11.23;7.83;;;13.10;99.90;;;;;;5091981;28;20495;-58
2021/10/25 12:43:10;;;;;;;11.80;8.43;;;12.80;99.90;;;;;;5091972;28;20504;-58
2021/10/25 12:45:41;;;;;;;16.20;10.13;;;12.70;99.90;;;;;;5091744;28;20527;-58
2021/10/25 12:48:10;;;;;;;16.50;11.50;;;12.80;99.90;;;;;;5091520;28;20454;-58
2021/10/25 12:50:42;;;;;;;15.10;9.80;;;12.80;99.90;;;;;;5091736;28;20539;-58
2021/10/25 12:53:12;;;;;;;13.60;9.77;;;12.40;99.90;;;;;;5115444;22;20490;-53
2021/10/25 12:55:42;;;;;;;14.07;9.07;;;12.40;99.90;;;;;;5080991;28;20443;-53
2021/10/25 12:58:11;;;;;;;19.10;10.97;;;12.50;99.90;;;;;;5071065;28;20533;-54
2021/10/25 13:00:39;;;;;;;18.40;11.40;;;12.50;99.90;;;;;;5090090;28;20846;-53
2021/10/25 13:03:10;;;;;;;17.80;12.47;;;12.00;99.90;;;;;;5092222;28;20900;-53
2021/10/25 13:05:40;;;;;;;25.63;13.90;;;12.00;99.90;;;;;;5091459;28;20507;-54
2021/10/25 13:08:08;;;;;;;19.93;13.50;;;11.90;99.90;;;;;;5091663;28;20453;-54
2021/10/25 13:10:40;;;;;;;21.67;13.07;;;11.80;99.90;;;;;;5094853;28;21006;-53
2021/10/25 13:13:11;;;;;;;23.90;13.93;;;11.90;99.90;;;;;;5072521;28;20466;-55
2021/10/25 13:15:39;;;;;;;25.20;13.80;;;11.80;99.90;;;;;;5073358;28;20462;-55
2021/10/25 13:18:09;;;;;;;22.10;13.37;;;11.80;99.90;;;;;;5071911;28;20477;-54
2021/10/25 13:20:40;;;;;;;25.57;13.10;;;11.90;99.90;;;;;;5071637;28;20523;-55
2021/10/25 13:23:08;;;;;;;21.23;12.07;;;12.10;99.90;;;;;;5090366;28;20527;-54
2021/10/25 13:25:35;;;;;;;21.97;13.00;;;12.30;99.90;;;;;;5069980;28;20466;-54
2021/10/25 13:28:06;;;;;;;21.90;12.83;;;12.20;99.90;;;;;;5071043;28;20841;-54
2021/10/25 13:30:34;;;;;;;22.27;13.57;;;12.30;99.90;;;;;;5071546;28;20486;-55
2021/10/25 13:33:01;;;;;;;20.90;13.00;;;12.20;99.90;;;;;;5085202;28;20571;-54
2021/10/25 13:35:29;;;;;;;20.77;12.57;;;12.00;99.90;;;;;;5091708;28;20544;-54
2021/10/25 13:37:58;;;;;;;19.23;12.50;;;12.00;99.90;;;;;;5091713;28;20438;-54
2021/10/25 13:40:28;;;;;;;21.70;12.83;;;12.00;99.90;;;;;;5091220;28;20446;-54
2021/10/25 13:42:55;;;;;;;22.10;13.00;;;11.90;99.90;;;;;;5091449;28;20462;-54
2021/10/25 13:45:22;;;;;;;21.33;12.40;;;11.90;99.90;;;;;;5092052;28;20441;-54
2021/10/25 13:47:49;;;;;;;18.40;12.40;;;11.90;99.90;;;;;;5091172;28;21032;-54
2021/10/25 13:50:17;;;;;;;22.40;13.40;;;11.90;99.90;;;;;;5091234;28;20535;-54
2021/10/25 13:52:44;;;;;;;19.80;12.50;;;11.90;99.90;;;;;;5091213;28;20542;-54
2021/10/25 13:55:13;;;;;;;20.00;12.90;;;12.00;99.90;;;;;;5091302;28;20457;-54
2021/10/25 13:57:41;;;;;;;20.53;13.70;;;11.90;99.90;;;;;;5091873;28;20451;-54
2021/10/25 14:00:10;;;;;;;20.03;13.23;;;11.90;99.90;;;;;;5091572;28;20548;-54
2021/10/25 14:02:39;;;;;;;20.47;12.53;;;11.90;99.90;;;;;;5090624;28;20465;-54
2021/10/25 14:05:08;;;;;;;20.63;13.57;;;11.80;99.90;;;;;;5091339;28;20540;-54
2021/10/25 14:07:36;;;;;;;24.70;13.50;;;11.80;99.90;;;;;;5091242;28;20879;-54